Time;durP1;ratioP1;P1;durP2;ratioP2;P2;SDS_P1;SDS_P2;PMS_P1;PMS_P2;Temp;Humidity;BMP_temperature;BMP_pressure;BME280_temperature;BME280_humidity;BME280_pressure;Samples;Min_cycle;Max_cycle;Signal;HPM_P1;HPM_P2
2023/03/25 00:02:15;;;;;;;3.83;1.25;;;;;;;;;;5036030;28;20045;-81
2023/03/25 00:04:41;;;;;;;4.68;1.40;;;;;;;;;;5038423;28;20409;-81
2023/03/25 00:07:09;;;;;;;3.00;1.23;;;;;;;;;;5036105;28;20099;-80
2023/03/25 00:09:36;;;;;;;2.33;1.20;;;;;;;;;;5020530;28;20042;-80
2023/03/25 00:12:03;;;;;;;4.47;1.20;;;;;;;;;;5019576;28;20045;-80
2023/03/25 00:14:31;;;;;;;3.83;1.60;;;;;;;;;;5033229;28;20053;-79
2023/03/25 00:17:00;;;;;;;5.38;1.15;;;;;;;;;;5029037;28;20516;-80
2023/03/25 00:19:26;;;;;;;3.45;1.23;;;;;;;;;;5026721;28;20103;-81
2023/03/25 00:21:53;;;;;;;3.25;1.30;;;;;;;;;;5021623;28;20038;-80
2023/03/25 00:24:20;;;;;;;2.78;1.30;;;;;;;;;;5022002;28;20102;-80
2023/03/25 00:26:47;;;;;;;2.65;1.20;;;;;;;;;;5022207;28;20132;-80
2023/03/25 00:29:15;;;;;;;2.63;1.08;;;;;;;;;;5021470;28;20050;-80
2023/03/25 00:31:44;;;;;;;2.70;1.10;;;;;;;;;;5021904;28;20045;-81
2023/03/25 00:34:13;;;;;;;4.75;1.40;;;;;;;;;;5014612;28;20084;-81
2023/03/25 00:36:40;;;;;;;1.92;0.90;;;;;;;;;;5014298;28;20050;-80
2023/03/25 00:39:07;;;;;;;3.13;1.50;;;;;;;;;;5014812;28;20046;-81
2023/03/25 00:41:36;;;;;;;2.80;1.50;;;;;;;;;;5014649;28;20092;-81
2023/03/25 00:44:05;;;;;;;2.78;1.00;;;;;;;;;;5013940;28;20054;-81
2023/03/25 00:46:32;;;;;;;3.65;1.30;;;;;;;;;;5014300;28;20682;-81
2023/03/25 00:49:01;;;;;;;2.80;1.10;;;;;;;;;;5014487;28;20129;-81
2023/03/25 00:51:30;;;;;;;2.75;0.95;;;;;;;;;;5014544;28;20109;-81
2023/03/25 00:53:59;;;;;;;5.03;1.38;;;;;;;;;;5014556;28;20042;-81
2023/03/25 00:56:26;;;;;;;2.15;0.90;;;;;;;;;;5014042;28;20053;-81
2023/03/25 00:58:53;;;;;;;2.95;1.23;;;;;;;;;;5017389;28;20061;-82
2023/03/25 01:01:25;;;;;;;2.40;0.73;;;;;;;;;;5017285;28;20046;-82
2023/03/25 01:03:56;;;;;;;2.78;1.45;;;;;;;;;;4997911;28;20050;-81
2023/03/25 01:06:27;;;;;;;;;;;;;;;;;;4997492;28;20058;-81
2023/03/25 01:08:55;;;;;;;5.20;1.27;;;;;;;;;;4997693;28;19928;-81
2023/03/25 01:11:24;;;;;;;2.72;1.33;;;;;;;;;;5001387;28;20057;-81
2023/03/25 01:13:51;;;;;;;3.05;1.10;;;;;;;;;;5016685;28;20045;-81
2023/03/25 01:16:18;;;;;;;2.72;1.10;;;;;;;;;;5016284;28;20050;-82
2023/03/25 01:18:45;;;;;;;4.47;1.55;;;;;;;;;;5016949;28;20153;-82
2023/03/25 01:21:11;;;;;;;4.38;1.38;;;;;;;;;;5017064;28;20100;-80
2023/03/25 01:23:39;;;;;;;4.07;1.00;;;;;;;;;;5016820;28;20513;-81
2023/03/25 01:26:06;;;;;;;2.28;0.90;;;;;;;;;;5016383;28;20050;-82
2023/03/25 01:28:33;;;;;;;3.28;1.15;;;;;;;;;;5016268;28;20054;-81
2023/03/25 01:31:01;;;;;;;3.35;1.00;;;;;;;;;;5016253;28;20073;-80
2023/03/25 01:33:28;;;;;;;3.78;0.90;;;;;;;;;;5015980;28;20125;-80
2023/03/25 01:35:54;;;;;;;2.10;0.90;;;;;;;;;;5016501;28;20085;-81
2023/03/25 01:38:22;;;;;;;3.40;0.98;;;;;;;;;;5015686;28;20081;-81
2023/03/25 01:40:51;;;;;;;4.22;1.00;;;;;;;;;;5016276;28;20449;-81
2023/03/25 01:43:18;;;;;;;3.80;1.27;;;;;;;;;;5016445;28;20121;-81
2023/03/25 01:45:45;;;;;;;3.72;1.55;;;;;;;;;;5016660;28;20046;-81
2023/03/25 01:48:17;;;;;;;6.35;1.27;;;;;;;;;;5016802;28;20046;-81
2023/03/25 01:50:48;;;;;;;5.25;1.30;;;;;;;;;;5027955;28;20046;-81
2023/03/25 01:53:15;;;;;;;3.33;1.20;;;;;;;;;;5018270;28;20166;-81
2023/03/25 01:55:44;;;;;;;4.72;1.00;;;;;;;;;;5017368;28;20518;-80
2023/03/25 01:58:15;;;;;;;2.67;1.08;;;;;;;;;;5015381;28;20689;-80
2023/03/25 02:00:44;;;;;;;3.58;0.98;;;;;;;;;;5015423;28;20077;-81
2023/03/25 02:03:11;;;;;;;2.80;1.02;;;;;;;;;;5015269;28;20138;-80
2023/03/25 02:05:46;;;;;;;3.53;1.00;;;;;;;;;;5016353;28;20146;-81
2023/03/25 02:08:14;;;;;;;2.55;1.00;;;;;;;;;;5017233;28;20065;-80
2023/03/25 02:10:44;;;;;;;5.47;1.10;;;;;;;;;;5016808;28;20052;-81
2023/03/25 02:13:14;;;;;;;1.85;0.80;;;;;;;;;;5017154;28;20050;-81
2023/03/25 02:16:10;;;;;;;4.15;1.30;;;;;;;;;;5020808;28;20049;-80
2023/03/25 02:18:46;;;;;;;4.53;1.25;;;;;;;;;;5010478;28;20053;-80
2023/03/25 02:21:52;;;;;;;3.28;1.00;;;;;;;;;;5010407;28;20113;-80
2023/03/25 02:24:44;;;;;;;2.25;1.20;;;;;;;;;;5000965;28;20504;-80
2023/03/25 02:27:26;;;;;;;2.50;0.80;;;;;;;;;;5015971;28;20129;-80
2023/03/25 02:30:45;;;;;;;3.67;1.15;;;;;;;;;;5015328;28;20068;-80
2023/03/25 02:33:32;;;;;;;3.13;0.82;;;;;;;;;;4954533;29;20752;-80
2023/03/25 02:36:35;;;;;;;3.13;0.60;;;;;;;;;;4967003;22;20089;-75
2023/03/25 02:39:08;;;;;;;3.28;0.82;;;;;;;;;;4971839;28;20214;-78
2023/03/25 02:41:41;;;;;;;3.97;1.15;;;;;;;;;;4976124;28;20121;-76
2023/03/25 02:44:13;;;;;;;2.38;0.73;;;;;;;;;;4975344;28;20505;-78
2023/03/25 02:46:44;;;;;;;2.25;0.75;;;;;;;;;;4974845;28;20074;-77
2023/03/25 02:49:13;;;;;;;;;;;;;;;;;;4975639;28;20082;-76
2023/03/25 02:51:46;;;;;;;2.50;0.57;;;;;;;;;;4975267;28;19964;-77
2023/03/25 02:54:16;;;;;;;3.25;1.10;;;;;;;;;;4975533;28;20046;-77
2023/03/25 02:56:46;;;;;;;1.73;0.73;;;;;;;;;;4976557;28;20137;-76
2023/03/25 02:59:14;;;;;;;2.38;0.90;;;;;;;;;;4975502;28;20587;-76
2023/03/25 03:01:41;;;;;;;3.83;0.98;;;;;;;;;;4975090;28;20054;-77
2023/03/25 03:04:08;;;;;;;2.95;0.73;;;;;;;;;;4975307;28;20121;-77
2023/03/25 03:06:38;;;;;;;1.73;0.73;;;;;;;;;;4975161;28;20051;-77
2023/03/25 03:09:24;;;;;;;2.08;0.80;;;;;;;;;;4975248;28;20073;-76
2023/03/25 03:12:04;;;;;;;1.60;0.55;;;;;;;;;;4974602;28;20061;-78
2023/03/25 03:14:43;;;;;;;3.05;1.08;;;;;;;;;;4974124;28;20070;-77
2023/03/25 03:17:17;;;;;;;4.63;1.50;;;;;;;;;;4974163;28;20059;-78
2023/03/25 03:19:49;;;;;;;2.63;0.60;;;;;;;;;;4974204;28;20098;-77
2023/03/25 03:22:35;;;;;;;4.40;0.75;;;;;;;;;;4976168;28;20085;-77
2023/03/25 03:25:09;;;;;;;2.50;1.05;;;;;;;;;;4976181;28;20141;-79
2023/03/25 03:27:42;;;;;;;3.90;0.85;;;;;;;;;;4975579;28;20050;-77
2023/03/25 03:30:14;;;;;;;2.70;0.70;;;;;;;;;;4974865;28;20070;-77
2023/03/25 03:32:47;;;;;;;3.85;1.02;;;;;;;;;;4975230;28;20050;-78
2023/03/25 03:35:18;;;;;;;1.33;0.68;;;;;;;;;;4975764;28;20053;-77
2023/03/25 03:37:50;;;;;;;1.67;0.55;;;;;;;;;;4974722;28;20082;-77
2023/03/25 03:40:21;;;;;;;3.00;1.73;;;;;;;;;;4973526;28;20089;-77
2023/03/25 03:42:51;;;;;;;2.83;0.60;;;;;;;;;;4973361;28;20054;-77
2023/03/25 03:45:22;;;;;;;3.58;0.70;;;;;;;;;;4973048;28;20129;-76
2023/03/25 03:47:53;;;;;;;4.30;1.70;;;;;;;;;;4973194;28;20046;-77
2023/03/25 03:50:21;;;;;;;;;;;;;;;;;;4973497;28;20486;-76
2023/03/25 03:52:54;;;;;;;4.10;1.38;;;;;;;;;;4974725;28;19973;-77
2023/03/25 03:55:28;;;;;;;2.90;0.90;;;;;;;;;;4975189;28;20069;-78
2023/03/25 03:57:58;;;;;;;2.45;1.50;;;;;;;;;;4975453;28;20042;-77
2023/03/25 04:00:30;;;;;;;1.92;0.80;;;;;;;;;;4975306;28;20043;-78
2023/03/25 04:03:00;;;;;;;3.97;0.80;;;;;;;;;;4975941;28;20070;-79
2023/03/25 04:05:29;;;;;;;3.08;0.60;;;;;;;;;;4976200;28;20054;-78
2023/03/25 04:08:01;;;;;;;5.20;1.73;;;;;;;;;;4974360;28;20055;-79
2023/03/25 04:10:38;;;;;;;3.90;0.80;;;;;;;;;;4974992;28;20057;-78
2023/03/25 04:13:08;;;;;;;2.97;1.00;;;;;;;;;;4974387;28;20058;-78
2023/03/25 04:15:34;;;;;;;3.10;0.90;;;;;;;;;;4975052;28;20141;-78
2023/03/25 04:18:02;;;;;;;3.20;0.60;;;;;;;;;;4976915;28;20130;-78
2023/03/25 04:20:35;;;;;;;3.90;0.98;;;;;;;;;;4974490;28;20476;-78
2023/03/25 04:23:03;;;;;;;2.78;0.85;;;;;;;;;;4975807;28;20075;-78
2023/03/25 04:25:32;;;;;;;4.05;0.90;;;;;;;;;;4978550;28;20047;-76
2023/03/25 04:27:59;;;;;;;3.30;0.80;;;;;;;;;;4974395;28;20125;-76
2023/03/25 04:30:27;;;;;;;5.05;1.00;;;;;;;;;;4974392;28;20085;-76
2023/03/25 04:32:54;;;;;;;3.30;0.60;;;;;;;;;;4976729;28;20057;-76
2023/03/25 04:35:21;;;;;;;5.40;0.80;;;;;;;;;;4978197;28;20053;-76
2023/03/25 04:37:48;;;;;;;3.55;0.77;;;;;;;;;;4978151;28;20137;-76
2023/03/25 04:40:17;;;;;;;3.97;0.82;;;;;;;;;;4977983;28;20050;-77
2023/03/25 04:42:45;;;;;;;4.03;0.60;;;;;;;;;;4978610;28;20050;-77
2023/03/25 04:45:15;;;;;;;3.03;0.80;;;;;;;;;;4977759;28;20565;-77
2023/03/25 04:47:43;;;;;;;5.43;0.98;;;;;;;;;;4977930;28;20130;-77
2023/03/25 04:50:18;;;;;;;4.80;0.95;;;;;;;;;;4978291;28;20046;-77
2023/03/25 04:52:45;;;;;;;5.45;0.90;;;;;;;;;;4978682;28;20417;-77
2023/03/25 04:55:16;;;;;;;5.45;1.38;;;;;;;;;;4977873;28;20134;-77
2023/03/25 04:57:45;;;;;;;4.30;1.20;;;;;;;;;;4978191;28;20066;-77
2023/03/25 05:00:13;;;;;;;5.15;0.73;;;;;;;;;;4958880;28;20582;-77
2023/03/25 05:02:44;;;;;;;2.35;0.63;;;;;;;;;;4958282;28;20403;-77
2023/03/25 05:05:16;;;;;;;;;;;;;;;;;;4959120;28;20078;-77
2023/03/25 05:07:44;;;;;;;3.25;0.70;;;;;;;;;;4959339;28;19926;-77
2023/03/25 05:10:11;;;;;;;3.70;1.55;;;;;;;;;;4971654;28;20082;-79
2023/03/25 05:12:38;;;;;;;4.65;0.93;;;;;;;;;;4964682;28;20495;-79
2023/03/25 05:15:07;;;;;;;2.80;0.70;;;;;;;;;;4957892;28;20110;-77
2023/03/25 05:17:34;;;;;;;5.72;0.85;;;;;;;;;;4957391;28;20047;-77
2023/03/25 05:20:01;;;;;;;1.40;0.63;;;;;;;;;;4976971;28;20055;-77
2023/03/25 05:22:27;;;;;;;4.68;0.70;;;;;;;;;;4977900;28;20050;-77
2023/03/25 05:24:55;;;;;;;6.72;1.02;;;;;;;;;;4977325;28;20079;-77
2023/03/25 05:27:21;;;;;;;5.25;1.33;;;;;;;;;;4976990;28;20414;-77
2023/03/25 05:29:48;;;;;;;2.80;0.90;;;;;;;;;;4977032;28;20078;-77
2023/03/25 05:32:17;;;;;;;3.92;0.70;;;;;;;;;;4976969;28;20058;-77
2023/03/25 05:34:45;;;;;;;4.15;0.85;;;;;;;;;;4977171;28;20055;-77
2023/03/25 05:37:12;;;;;;;2.67;0.80;;;;;;;;;;4977209;28;20054;-77
2023/03/25 05:39:39;;;;;;;1.95;0.60;;;;;;;;;;4977327;28;20569;-76
2023/03/25 05:42:06;;;;;;;3.10;0.70;;;;;;;;;;4978028;28;20074;-77
2023/03/25 05:44:32;;;;;;;4.88;0.70;;;;;;;;;;4976693;28;20054;-77
2023/03/25 05:47:00;;;;;;;3.85;0.80;;;;;;;;;;4976630;28;20138;-78
2023/03/25 05:49:28;;;;;;;3.42;0.80;;;;;;;;;;4976334;28;20119;-78
2023/03/25 05:51:55;;;;;;;3.90;0.80;;;;;;;;;;4976638;28;20061;-77
2023/03/25 05:54:23;;;;;;;1.67;1.08;;;;;;;;;;4977057;28;20046;-77
2023/03/25 05:56:50;;;;;;;3.10;0.68;;;;;;;;;;4976369;28;20054;-78
2023/03/25 05:59:16;;;;;;;2.53;0.70;;;;;;;;;;4976487;28;20442;-77
2023/03/25 06:01:44;;;;;;;2.70;0.90;;;;;;;;;;4976516;28;20050;-77
2023/03/25 06:04:12;;;;;;;1.48;0.60;;;;;;;;;;4976724;28;20043;-77
2023/03/25 06:06:40;;;;;;;1.33;0.55;;;;;;;;;;4976204;28;20047;-77
2023/03/25 06:09:07;;;;;;;1.42;0.60;;;;;;;;;;4976874;28;20042;-77
2023/03/25 06:11:36;;;;;;;5.20;1.02;;;;;;;;;;4976140;28;20601;-77
2023/03/25 06:14:03;;;;;;;1.80;0.50;;;;;;;;;;4976704;28;20126;-77
2023/03/25 06:16:31;;;;;;;1.45;0.63;;;;;;;;;;4976878;28;20125;-78
2023/03/25 06:18:59;;;;;;;1.60;0.60;;;;;;;;;;4976301;28;20451;-78
2023/03/25 06:21:26;;;;;;;1.33;0.50;;;;;;;;;;4976303;28;20322;-77
2023/03/25 06:23:56;;;;;;;2.08;0.63;;;;;;;;;;4976634;28;20051;-77
2023/03/25 06:26:23;;;;;;;1.67;0.60;;;;;;;;;;4976565;28;20043;-77
2023/03/25 06:28:50;;;;;;;0.65;0.50;;;;;;;;;;4976060;28;20122;-77
2023/03/25 06:31:21;;;;;;;1.27;0.45;;;;;;;;;;4976553;28;20085;-77
2023/03/25 06:33:49;;;;;;;1.23;0.40;;;;;;;;;;4976067;28;20061;-77
2023/03/25 06:36:17;;;;;;;1.10;0.40;;;;;;;;;;4975892;28;20137;-77
2023/03/25 06:38:45;;;;;;;0.85;0.30;;;;;;;;;;4976292;28;20054;-77
2023/03/25 06:41:13;;;;;;;0.73;0.50;;;;;;;;;;4975965;28;20054;-77
2023/03/25 06:43:40;;;;;;;2.53;0.68;;;;;;;;;;4976014;28;20047;-78
2023/03/25 06:46:07;;;;;;;1.48;0.68;;;;;;;;;;4975820;28;20046;-77
2023/03/25 06:48:34;;;;;;;1.23;0.52;;;;;;;;;;4975715;28;20078;-78
2023/03/25 06:51:01;;;;;;;1.40;0.52;;;;;;;;;;4975651;28;20047;-77
2023/03/25 06:53:27;;;;;;;1.20;0.50;;;;;;;;;;4975693;28;20074;-77
2023/03/25 06:55:56;;;;;;;1.77;0.50;;;;;;;;;;4974292;28;20504;-77
2023/03/25 06:58:33;;;;;;;1.50;0.45;;;;;;;;;;4975377;28;20082;-77
2023/03/25 07:01:02;;;;;;;0.90;0.50;;;;;;;;;;4975625;28;20051;-77
2023/03/25 07:03:29;;;;;;;1.30;0.50;;;;;;;;;;4978133;28;20050;-77
2023/03/25 07:05:56;;;;;;;2.80;1.17;;;;;;;;;;4977471;28;20094;-77
2023/03/25 07:08:23;;;;;;;1.70;0.50;;;;;;;;;;4978057;28;20122;-77
2023/03/25 07:10:49;;;;;;;1.77;0.52;;;;;;;;;;4978666;28;20046;-77
2023/03/25 07:13:16;;;;;;;1.42;0.50;;;;;;;;;;4977677;28;20047;-77
2023/03/25 07:15:44;;;;;;;1.98;0.60;;;;;;;;;;4978053;28;20126;-77
2023/03/25 07:18:11;;;;;;;5.07;0.60;;;;;;;;;;4978113;28;20461;-77
2023/03/25 07:20:38;;;;;;;2.83;0.50;;;;;;;;;;4978050;28;20051;-77
2023/03/25 07:23:04;;;;;;;1.50;0.60;;;;;;;;;;4977558;28;20097;-77
2023/03/25 07:25:31;;;;;;;1.52;0.60;;;;;;;;;;4980721;28;20089;-77
2023/03/25 07:27:57;;;;;;;2.30;0.70;;;;;;;;;;4976315;28;20083;-77
2023/03/25 07:30:24;;;;;;;1.70;0.50;;;;;;;;;;4975103;28;20146;-77
2023/03/25 07:32:52;;;;;;;2.50;0.63;;;;;;;;;;4976009;28;20081;-77
2023/03/25 07:35:19;;;;;;;2.55;0.55;;;;;;;;;;4974798;28;20138;-77
2023/03/25 07:37:46;;;;;;;3.28;0.73;;;;;;;;;;4975241;28;20049;-77
2023/03/25 07:40:13;;;;;;;3.08;1.63;;;;;;;;;;4975342;28;20078;-77
2023/03/25 07:42:40;;;;;;;1.55;0.40;;;;;;;;;;4977555;28;20126;-78
2023/03/25 07:45:07;;;;;;;1.40;0.40;;;;;;;;;;4978639;28;20043;-77
2023/03/25 07:47:34;;;;;;;1.83;0.55;;;;;;;;;;4978198;28;20106;-77
2023/03/25 07:50:03;;;;;;;5.97;0.77;;;;;;;;;;4977731;28;20101;-78
2023/03/25 07:52:30;;;;;;;1.83;0.52;;;;;;;;;;4977939;28;20070;-76
2023/03/25 07:54:57;;;;;;;1.65;0.47;;;;;;;;;;4975365;28;20049;-76
2023/03/25 07:57:24;;;;;;;1.30;0.47;;;;;;;;;;4976128;28;20066;-77
2023/03/25 07:59:51;;;;;;;2.25;0.57;;;;;;;;;;4977829;28;20043;-78
2023/03/25 08:02:18;;;;;;;0.80;0.38;;;;;;;;;;4978042;28;20070;-77
2023/03/25 08:04:45;;;;;;;1.15;0.50;;;;;;;;;;4975178;28;20050;-77
2023/03/25 08:07:13;;;;;;;2.53;0.88;;;;;;;;;;4976504;28;20101;-79
2023/03/25 08:09:42;;;;;;;1.15;0.50;;;;;;;;;;4993231;28;20070;-77
2023/03/25 08:12:09;;;;;;;2.95;0.68;;;;;;;;;;5010325;28;20050;-78
2023/03/25 08:14:35;;;;;;;2.58;0.65;;;;;;;;;;4986342;28;20053;-78
2023/03/25 08:17:02;;;;;;;2.97;0.50;;;;;;;;;;4978425;28;20046;-78
2023/03/25 08:19:29;;;;;;;2.45;0.50;;;;;;;;;;4978267;28;20050;-77
2023/03/25 08:21:55;;;;;;;0.70;0.35;;;;;;;;;;4978541;28;20096;-77
2023/03/25 08:24:25;;;;;;;1.92;0.63;;;;;;;;;;4978482;28;20053;-78
2023/03/25 08:26:52;;;;;;;2.22;0.52;;;;;;;;;;4977848;28;20596;-78
2023/03/25 08:29:19;;;;;;;1.55;0.52;;;;;;;;;;4977589;28;20553;-76
2023/03/25 08:31:50;;;;;;;2.38;0.60;;;;;;;;;;4980053;28;20075;-78
2023/03/25 08:34:18;;;;;;;0.70;0.40;;;;;;;;;;4977579;28;20054;-77
2023/03/25 08:36:45;;;;;;;2.90;0.55;;;;;;;;;;4975462;28;20078;-77
2023/03/25 08:39:16;;;;;;;2.00;0.80;;;;;;;;;;4960179;28;20075;-77
2023/03/25 08:41:44;;;;;;;1.15;0.50;;;;;;;;;;4960676;28;20090;-77
2023/03/25 08:44:11;;;;;;;1.30;0.57;;;;;;;;;;4966451;28;20051;-78
2023/03/25 08:46:38;;;;;;;0.95;0.52;;;;;;;;;;4976832;28;20043;-76
2023/03/25 08:49:05;;;;;;;2.25;0.50;;;;;;;;;;4976496;28;20493;-77
2023/03/25 08:51:32;;;;;;;1.02;0.30;;;;;;;;;;4977824;28;20057;-77
2023/03/25 08:53:59;;;;;;;1.35;0.40;;;;;;;;;;4979604;28;20047;-78
2023/03/25 08:56:26;;;;;;;0.50;0.40;;;;;;;;;;4979209;28;20042;-78
2023/03/25 08:58:54;;;;;;;2.10;0.57;;;;;;;;;;4980019;28;20113;-78
2023/03/25 09:01:23;;;;;;;3.67;0.52;;;;;;;;;;4983976;28;20472;-77
2023/03/25 09:03:50;;;;;;;0.88;0.50;;;;;;;;;;4988284;28;20089;-77
2023/03/25 09:06:16;;;;;;;0.80;0.40;;;;;;;;;;4987025;28;20070;-78
2023/03/25 09:08:43;;;;;;;2.58;0.50;;;;;;;;;;4998704;28;20474;-77
2023/03/25 09:11:10;;;;;;;1.67;0.50;;;;;;;;;;5006942;28;20066;-78
2023/03/25 09:13:37;;;;;;;1.20;0.43;;;;;;;;;;4971505;28;20042;-78
2023/03/25 09:16:06;;;;;;;1.20;0.43;;;;;;;;;;4978068;28;20585;-77
2023/03/25 09:18:35;;;;;;;2.05;0.55;;;;;;;;;;4976712;28;20564;-79
2023/03/25 09:21:03;;;;;;;0.85;0.50;;;;;;;;;;4976884;28;20069;-79
2023/03/25 09:23:29;;;;;;;3.28;0.75;;;;;;;;;;4976978;28;20086;-79
2023/03/25 09:26:02;;;;;;;2.50;0.60;;;;;;;;;;4978085;28;20054;-79
2023/03/25 09:28:29;;;;;;;2.22;0.60;;;;;;;;;;4979513;28;20050;-77
2023/03/25 09:30:56;;;;;;;3.42;0.90;;;;;;;;;;4981500;28;20047;-79
2023/03/25 09:33:26;;;;;;;1.75;0.50;;;;;;;;;;4981232;28;20152;-78
2023/03/25 09:35:53;;;;;;;0.80;0.50;;;;;;;;;;4980457;28;20418;-79
2023/03/25 09:38:19;;;;;;;1.95;0.50;;;;;;;;;;4993207;28;20097;-81
2023/03/25 09:40:46;;;;;;;2.58;1.05;;;;;;;;;;4983711;28;20043;-81
2023/03/25 09:43:39;;;;;;;2.88;0.80;;;;;;;;;;4981613;28;20117;-84
2023/03/25 09:46:07;;;;;;;2.72;0.98;;;;;;;;;;4968450;28;20055;-78
2023/03/25 09:48:38;;;;;;;2.75;0.82;;;;;;;;;;4979395;28;20049;-79
2023/03/25 09:51:07;;;;;;;3.38;0.60;;;;;;;;;;4980984;28;20125;-78
2023/03/25 09:53:39;;;;;;;5.10;0.63;;;;;;;;;;4976551;28;20055;-79
2023/03/25 09:56:13;;;;;;;2.03;0.65;;;;;;;;;;4976940;28;20073;-77
2023/03/25 09:58:43;;;;;;;2.30;0.52;;;;;;;;;;4973550;28;20106;-78
2023/03/25 10:01:21;;;;;;;1.85;0.63;;;;;;;;;;4966548;28;20070;-78
2023/03/25 10:03:59;;;;;;;1.90;0.73;;;;;;;;;;4967518;28;20134;-78
2023/03/25 10:06:26;;;;;;;3.10;0.70;;;;;;;;;;4970635;28;20047;-78
2023/03/25 10:09:15;;;;;;;2.15;0.75;;;;;;;;;;4964831;28;20087;-76
2023/03/25 10:11:49;;;;;;;1.73;0.50;;;;;;;;;;4964222;28;20134;-78
2023/03/25 10:14:20;;;;;;;3.00;0.70;;;;;;;;;;4964900;28;20054;-78
2023/03/25 10:16:57;;;;;;;3.60;0.88;;;;;;;;;;4969375;28;20416;-77
2023/03/25 10:19:49;;;;;;;2.00;0.50;;;;;;;;;;4974505;28;20115;-78
2023/03/25 10:22:21;;;;;;;3.92;0.80;;;;;;;;;;4970508;28;20043;-77
2023/03/25 10:24:51;;;;;;;2.90;0.70;;;;;;;;;;4975487;28;20128;-78
2023/03/25 10:27:22;;;;;;;3.50;0.77;;;;;;;;;;4978940;28;20105;-76
2023/03/25 10:29:52;;;;;;;3.05;0.55;;;;;;;;;;4977768;28;20505;-76
2023/03/25 10:32:29;;;;;;;4.10;0.55;;;;;;;;;;4975205;28;20418;-78
2023/03/25 10:34:59;;;;;;;2.75;0.80;;;;;;;;;;4971349;28;20564;-77
2023/03/25 10:37:29;;;;;;;4.90;0.90;;;;;;;;;;4982637;28;20113;-78
2023/03/25 10:40:00;;;;;;;3.25;1.10;;;;;;;;;;4985738;28;20813;-77
2023/03/25 10:42:31;;;;;;;2.80;0.80;;;;;;;;;;4976978;28;20082;-78
2023/03/25 10:44:58;;;;;;;7.75;0.98;;;;;;;;;;4984558;28;20074;-77
2023/03/25 10:47:28;;;;;;;2.30;0.77;;;;;;;;;;4985306;28;20106;-78
2023/03/25 10:49:58;;;;;;;;;;;;;;;;;;4984420;28;20050;-79
2023/03/25 10:52:24;;;;;;;2.67;0.60;;;;;;;;;;4986165;28;19922;-79
2023/03/25 10:54:54;;;;;;;1.90;0.60;;;;;;;;;;4978505;28;20489;-78
2023/03/25 10:57:25;;;;;;;2.60;0.82;;;;;;;;;;4977408;28;20136;-78
2023/03/25 10:59:59;;;;;;;1.65;0.52;;;;;;;;;;4978807;28;20085;-80
2023/03/25 11:02:29;;;;;;;1.30;0.57;;;;;;;;;;4981517;28;20051;-78
2023/03/25 11:04:59;;;;;;;1.17;0.60;;;;;;;;;;4978497;28;20054;-78
2023/03/25 11:07:31;;;;;;;1.83;0.52;;;;;;;;;;4975401;28;20047;-78
2023/03/25 11:10:25;;;;;;;1.27;0.60;;;;;;;;;;4983496;28;20047;-79
2023/03/25 11:12:53;;;;;;;2.25;0.60;;;;;;;;;;4955083;28;20089;-79
2023/03/25 11:15:22;;;;;;;2.40;0.70;;;;;;;;;;4977780;28;20059;-78
2023/03/25 11:17:58;;;;;;;3.37;0.60;;;;;;;;;;4977162;28;20057;-79
2023/03/25 11:20:30;;;;;;;2.35;0.68;;;;;;;;;;4978416;28;20355;-79
2023/03/25 11:23:04;;;;;;;1.98;0.50;;;;;;;;;;4976824;28;20051;-79
2023/03/25 11:25:36;;;;;;;1.83;0.50;;;;;;;;;;4976397;28;20047;-79
2023/03/25 11:28:09;;;;;;;0.77;0.50;;;;;;;;;;4976310;28;20101;-78
2023/03/25 11:30:36;;;;;;;1.45;0.43;;;;;;;;;;4978102;28;20097;-78
2023/03/25 11:33:05;;;;;;;1.45;0.60;;;;;;;;;;4975717;28;20549;-78
2023/03/25 11:35:37;;;;;;;1.73;0.60;;;;;;;;;;4977400;28;20078;-78
2023/03/25 11:38:14;;;;;;;1.00;0.50;;;;;;;;;;4974996;28;20051;-78
2023/03/25 11:40:50;;;;;;;1.52;0.50;;;;;;;;;;4975283;28;20411;-78
2023/03/25 11:43:21;;;;;;;1.98;0.90;;;;;;;;;;4977291;28;20082;-77
2023/03/25 11:45:48;;;;;;;1.52;0.57;;;;;;;;;;4975650;28;20740;-80
2023/03/25 11:48:18;;;;;;;2.67;0.55;;;;;;;;;;4976418;28;20133;-78
2023/03/25 11:50:51;;;;;;;1.10;0.55;;;;;;;;;;4976253;28;20051;-77
2023/03/25 11:53:19;;;;;;;5.45;1.35;;;;;;;;;;4976110;28;20055;-77
2023/03/25 11:55:50;;;;;;;0.65;0.40;;;;;;;;;;4976982;28;20527;-79
2023/03/25 11:58:20;;;;;;;2.15;0.50;;;;;;;;;;4977946;28;20046;-78
2023/03/25 12:00:48;;;;;;;1.92;0.50;;;;;;;;;;4975776;28;20061;-78
2023/03/25 12:03:21;;;;;;;0.35;0.32;;;;;;;;;;4976814;28;20089;-78
2023/03/25 12:06:00;;;;;;;0.63;0.30;;;;;;;;;;4976756;28;20137;-79
2023/03/25 12:08:30;;;;;;;0.82;0.40;;;;;;;;;;4979436;28;20055;-79
2023/03/25 12:11:05;;;;;;;2.30;0.63;;;;;;;;;;4979752;28;20535;-78
2023/03/25 12:14:00;;;;;;;0.85;0.50;;;;;;;;;;4976230;28;20051;-78
2023/03/25 12:16:36;;;;;;;1.52;0.50;;;;;;;;;;4975384;28;20082;-78
2023/03/25 12:19:12;;;;;;;1.88;0.43;;;;;;;;;;4978689;28;20082;-78
2023/03/25 12:21:56;;;;;;;1.17;0.52;;;;;;;;;;4978069;28;20122;-78
2023/03/25 12:24:34;;;;;;;1.15;0.50;;;;;;;;;;4979516;28;20097;-78
2023/03/25 12:27:14;;;;;;;0.93;0.50;;;;;;;;;;4977834;28;20089;-78
2023/03/25 12:29:44;;;;;;;;;;;;;;;;;;4978742;28;20050;-80
2023/03/25 12:32:24;;;;;;;3.53;1.25;;;;;;;;;;4977091;28;19973;-79
2023/03/25 12:35:03;;;;;;;1.75;1.38;;;;;;;;;;4981592;28;20050;-78
2023/03/25 12:37:39;;;;;;;3.60;1.65;;;;;;;;;;4979336;28;20503;-78
2023/03/25 12:40:26;;;;;;;2.35;0.95;;;;;;;;;;4976091;28;20130;-78
2023/03/25 12:43:03;;;;;;;5.97;2.28;;;;;;;;;;4978299;28;20499;-79
2023/03/25 12:45:43;;;;;;;2.00;0.80;;;;;;;;;;4977937;28;20129;-78
2023/03/25 12:48:18;;;;;;;5.72;2.13;;;;;;;;;;4978729;28;20336;-77
2023/03/25 12:50:55;;;;;;;1.77;0.60;;;;;;;;;;4975752;28;20160;-78
2023/03/25 12:53:35;;;;;;;4.82;1.58;;;;;;;;;;4977292;28;20047;-78
2023/03/25 12:56:16;;;;;;;4.50;1.33;;;;;;;;;;4978255;28;20101;-78
2023/03/25 12:59:01;;;;;;;3.42;1.10;;;;;;;;;;4977760;28;20089;-77
2023/03/25 13:01:37;;;;;;;2.60;0.68;;;;;;;;;;4978167;28;20446;-78
2023/03/25 13:04:29;;;;;;;1.50;0.50;;;;;;;;;;4980134;28;20042;-77
2023/03/25 13:07:03;;;;;;;2.60;0.80;;;;;;;;;;4951088;28;20086;-78
2023/03/25 13:09:36;;;;;;;2.28;0.70;;;;;;;;;;4977666;28;20057;-78
2023/03/25 13:12:09;;;;;;;2.50;0.73;;;;;;;;;;4976884;28;20487;-77
2023/03/25 13:14:39;;;;;;;2.33;0.82;;;;;;;;;;4977453;28;20470;-78
2023/03/25 13:17:10;;;;;;;2.97;0.73;;;;;;;;;;4977613;28;20134;-77
2023/03/25 13:19:41;;;;;;;1.58;0.50;;;;;;;;;;4980315;28;20081;-78
2023/03/25 13:22:17;;;;;;;1.05;0.60;;;;;;;;;;4977416;28;20050;-78
2023/03/25 13:24:50;;;;;;;1.25;0.50;;;;;;;;;;4977508;28;20606;-77
2023/03/25 13:27:17;;;;;;;1.48;0.60;;;;;;;;;;4976380;28;20429;-77
2023/03/25 13:29:47;;;;;;;2.72;0.98;;;;;;;;;;4977481;28;21154;-79
2023/03/25 13:32:19;;;;;;;0.40;0.40;;;;;;;;;;4977223;28;20074;-78
2023/03/25 13:34:51;;;;;;;2.10;0.50;;;;;;;;;;4977307;28;20078;-78
2023/03/25 13:37:23;;;;;;;2.00;0.63;;;;;;;;;;4976707;28;20082;-80
2023/03/25 13:40:12;;;;;;;1.05;0.60;;;;;;;;;;4976803;28;20141;-78
2023/03/25 13:42:46;;;;;;;0.90;0.50;;;;;;;;;;4976950;28;20047;-77
2023/03/25 13:45:17;;;;;;;2.17;0.50;;;;;;;;;;4976779;28;20043;-78
2023/03/25 13:47:50;;;;;;;0.85;0.43;;;;;;;;;;4976339;28;20146;-78
2023/03/25 13:50:24;;;;;;;0.88;0.43;;;;;;;;;;4976169;28;20046;-78
2023/03/25 13:52:58;;;;;;;0.75;0.40;;;;;;;;;;4979354;28;20101;-78
2023/03/25 13:55:32;;;;;;;1.65;0.90;;;;;;;;;;4979992;28;20073;-77
2023/03/25 13:58:18;;;;;;;2.85;0.50;;;;;;;;;;4977875;28;20050;-76
2023/03/25 14:01:03;;;;;;;0.98;0.40;;;;;;;;;;4977495;28;20054;-77
2023/03/25 14:03:59;;;;;;;1.23;0.50;;;;;;;;;;4976020;28;20469;-77
2023/03/25 14:06:43;;;;;;;3.50;0.70;;;;;;;;;;4976569;28;20051;-76
2023/03/25 14:09:37;;;;;;;0.90;0.50;;;;;;;;;;4975773;28;20050;-77
2023/03/25 14:12:10;;;;;;;0.85;0.45;;;;;;;;;;4976722;28;20102;-77
2023/03/25 14:14:41;;;;;;;2.10;0.50;;;;;;;;;;4977018;28;20053;-78
2023/03/25 14:17:10;;;;;;;1.20;0.50;;;;;;;;;;4975026;28;20053;-77
2023/03/25 14:19:39;;;;;;;1.27;0.52;;;;;;;;;;4974673;28;20054;-77
2023/03/25 14:22:10;;;;;;;2.35;0.50;;;;;;;;;;4975397;28;20474;-77
2023/03/25 14:24:36;;;;;;;5.03;0.82;;;;;;;;;;4974944;28;20047;-77
2023/03/25 14:27:07;;;;;;;1.95;0.52;;;;;;;;;;4975205;28;20054;-77
2023/03/25 14:29:38;;;;;;;1.80;0.50;;;;;;;;;;4975291;28;20047;-78
2023/03/25 14:32:25;;;;;;;1.33;0.47;;;;;;;;;;4975260;28;20093;-78
2023/03/25 14:34:59;;;;;;;1.63;0.57;;;;;;;;;;4975685;28;20051;-79
2023/03/25 14:37:28;;;;;;;0.77;0.57;;;;;;;;;;4976383;28;20057;-78
2023/03/25 14:39:58;;;;;;;2.08;0.85;;;;;;;;;;4976522;28;20078;-77
2023/03/25 14:42:40;;;;;;;3.80;0.70;;;;;;;;;;4975896;28;20042;-78
2023/03/25 14:45:41;;;;;;;1.30;0.65;;;;;;;;;;4976806;28;20058;-80
2023/03/25 14:48:23;;;;;;;2.17;0.60;;;;;;;;;;4975943;28;20055;-78
2023/03/25 14:51:06;;;;;;;1.63;0.50;;;;;;;;;;4976756;28;20078;-77
2023/03/25 14:53:32;;;;;;;1.02;0.60;;;;;;;;;;4976090;28;20387;-77
2023/03/25 14:56:01;;;;;;;1.58;0.52;;;;;;;;;;4979044;28;20276;-79
2023/03/25 14:58:30;;;;;;;2.25;0.98;;;;;;;;;;4988894;28;20049;-80
2023/03/25 15:01:03;;;;;;;2.55;0.70;;;;;;;;;;4989031;28;20047;-82
2023/03/25 15:03:34;;;;;;;1.30;0.55;;;;;;;;;;4982933;28;20141;-78
2023/03/25 15:06:01;;;;;;;1.60;0.70;;;;;;;;;;4977140;28;20498;-77
2023/03/25 15:08:34;;;;;;;1.35;0.90;;;;;;;;;;4976272;28;20050;-79
2023/03/25 15:11:07;;;;;;;2.22;1.33;;;;;;;;;;4976141;28;20089;-77